Oswego Center, New York
Current Conditions -  °F | °C
As of 9:54 PM on Friday 21 Nov 2014 (Local Time) from KFZY Reporting Station
Broken Clouds Broken Clouds  
Wind Chill: 14°   Ceiling: 4900
Heat Index: 25°   Visibility: 10mi
Dew Point: 12°   Wind: 12mph
Humidity: 58%   Direction: 230°SW
Pressure: 30.41"   Gusts: NA
Location:  43.4571°N, 76.4163°W
Report Text: KFZY 220254Z AUTO 23010KT 10SM BKN049 M04/M11 A3041 RMK AO2 SLP306 T10391111 50001
Loading
Personal Weather Stations






























Interactive Weather Map New forecast layout! Learn more

10-Day Weather Forecast

Advertisements
Track Severe Weather on mobile